Aviation Digital Data Service (ADDS)

Output produced by METARs form (1820 UTC 24 November 2017)
found at http://www.aviationweather.gov/adds/metars/
 
KMIV 241754Z AUTO VRB04KT 10SM CLR 09/M02 A3003 RMK AO2 SLP167 T00941017 10100 21050 58021
KMIV 241720Z 2418/2518 25007KT P6SM SKC 
     FM242200 VRB02KT P6SM SKC 
     FM251700 23009KT P6SM BKN200